sensor_id;sensor_type;location;lat;lon;timestamp;P1;durP1;ratioP1;P2;durP2;ratioP2
19213;SDS011;9741;51.020;5.304;2023-09-30T00:02:03;1.10;;;0.67;;
19213;SDS011;9741;51.020;5.304;2023-09-30T00:04:30;0.80;;;0.80;;
19213;SDS011;9741;51.020;5.304;2023-09-30T00:06:58;2.17;;;1.13;;
19213;SDS011;9741;51.020;5.304;2023-09-30T00:09:25;1.03;;;0.93;;
19213;SDS011;9741;51.020;5.304;2023-09-30T00:11:53;0.77;;;0.77;;
19213;SDS011;9741;51.020;5.304;2023-09-30T00:14:20;0.97;;;0.90;;
19213;SDS011;9741;51.020;5.304;2023-09-30T00:16:49;0.70;;;0.70;;
19213;SDS011;9741;51.020;5.304;2023-09-30T00:19:16;0.53;;;0.53;;
19213;SDS011;9741;51.020;5.304;2023-09-30T00:21:43;4.70;;;0.87;;
19213;SDS011;9741;51.020;5.304;2023-09-30T00:24:10;0.30;;;0.30;;
19213;SDS011;9741;51.020;5.304;2023-09-30T00:26:37;2.83;;;1.03;;
19213;SDS011;9741;51.020;5.304;2023-09-30T00:29:05;0.60;;;0.60;;
19213;SDS011;9741;51.020;5.304;2023-09-30T00:31:32;2.83;;;1.33;;
19213;SDS011;9741;51.020;5.304;2023-09-30T00:34:00;1.03;;;0.93;;
19213;SDS011;9741;51.020;5.304;2023-09-30T00:36:29;1.43;;;1.03;;
19213;SDS011;9741;51.020;5.304;2023-09-30T00:38:56;1.40;;;0.83;;
19213;SDS011;9741;51.020;5.304;2023-09-30T00:41:24;1.43;;;1.13;;
19213;SDS011;9741;51.020;5.304;2023-09-30T00:43:51;5.07;;;1.43;;
19213;SDS011;9741;51.020;5.304;2023-09-30T00:46:21;0.70;;;0.70;;
19213;SDS011;9741;51.020;5.304;2023-09-30T00:48:53;2.40;;;1.17;;
19213;SDS011;9741;51.020;5.304;2023-09-30T00:51:23;1.10;;;0.67;;
19213;SDS011;9741;51.020;5.304;2023-09-30T00:53:51;1.87;;;0.97;;
19213;SDS011;9741;51.020;5.304;2023-09-30T00:56:19;2.10;;;1.10;;
19213;SDS011;9741;51.020;5.304;2023-09-30T00:58:47;1.33;;;1.07;;
19213;SDS011;9741;51.020;5.304;2023-09-30T01:01:16;3.13;;;1.23;;
19213;SDS011;9741;51.020;5.304;2023-09-30T01:03:45;2.00;;;1.53;;
19213;SDS011;9741;51.020;5.304;2023-09-30T01:06:12;5.20;;;2.00;;
19213;SDS011;9741;51.020;5.304;2023-09-30T01:08:41;2.23;;;1.23;;
19213;SDS011;9741;51.020;5.304;2023-09-30T01:11:08;2.93;;;1.90;;
19213;SDS011;9741;51.020;5.304;2023-09-30T01:13:36;2.20;;;1.37;;
19213;SDS011;9741;51.020;5.304;2023-09-30T01:16:04;1.20;;;0.80;;
19213;SDS011;9741;51.020;5.304;2023-09-30T01:18:31;2.67;;;1.73;;
19213;SDS011;9741;51.020;5.304;2023-09-30T01:20:59;0.93;;;0.87;;
19213;SDS011;9741;51.020;5.304;2023-09-30T01:23:31;0.60;;;0.60;;
19213;SDS011;9741;51.020;5.304;2023-09-30T01:26:01;1.23;;;0.97;;
19213;SDS011;9741;51.020;5.304;2023-09-30T01:28:30;0.80;;;0.80;;
19213;SDS011;9741;51.020;5.304;2023-09-30T01:30:58;2.33;;;0.50;;
19213;SDS011;9741;51.020;5.304;2023-09-30T01:33:25;1.00;;;0.90;;
19213;SDS011;9741;51.020;5.304;2023-09-30T01:35:53;2.20;;;1.27;;
19213;SDS011;9741;51.020;5.304;2023-09-30T01:38:20;0.83;;;0.83;;
19213;SDS011;9741;51.020;5.304;2023-09-30T01:40:49;0.50;;;0.50;;
19213;SDS011;9741;51.020;5.304;2023-09-30T01:43:17;1.43;;;1.13;;
19213;SDS011;9741;51.020;5.304;2023-09-30T01:45:44;0.50;;;0.50;;
19213;SDS011;9741;51.020;5.304;2023-09-30T01:48:11;0.53;;;0.53;;
19213;SDS011;9741;51.020;5.304;2023-09-30T01:50:39;0.80;;;0.73;;
19213;SDS011;9741;51.020;5.304;2023-09-30T01:53:07;0.77;;;0.77;;
19213;SDS011;9741;51.020;5.304;2023-09-30T01:55:34;0.80;;;0.80;;
19213;SDS011;9741;51.020;5.304;2023-09-30T01:58:03;1.07;;;0.77;;
19213;SDS011;9741;51.020;5.304;2023-09-30T02:00:31;0.97;;;0.80;;
19213;SDS011;9741;51.020;5.304;2023-09-30T02:03:00;1.50;;;0.60;;
19213;SDS011;9741;51.020;5.304;2023-09-30T02:05:27;0.80;;;0.80;;
19213;SDS011;9741;51.020;5.304;2023-09-30T02:07:54;1.53;;;0.67;;
19213;SDS011;9741;51.020;5.304;2023-09-30T02:10:21;0.30;;;0.30;;
19213;SDS011;9741;51.020;5.304;2023-09-30T02:12:48;1.73;;;0.80;;
19213;SDS011;9741;51.020;5.304;2023-09-30T02:15:17;3.33;;;1.30;;
19213;SDS011;9741;51.020;5.304;2023-09-30T02:17:44;1.33;;;1.07;;
19213;SDS011;9741;51.020;5.304;2023-09-30T02:20:14;2.90;;;1.10;;
19213;SDS011;9741;51.020;5.304;2023-09-30T02:22:44;0.77;;;0.77;;
19213;SDS011;9741;51.020;5.304;2023-09-30T02:25:12;0.30;;;0.30;;
19213;SDS011;9741;51.020;5.304;2023-09-30T02:27:40;0.47;;;0.47;;
19213;SDS011;9741;51.020;5.304;2023-09-30T02:30:08;0.40;;;0.40;;
19213;SDS011;9741;51.020;5.304;2023-09-30T02:32:38;0.80;;;0.80;;
19213;SDS011;9741;51.020;5.304;2023-09-30T02:35:06;1.67;;;0.80;;
19213;SDS011;9741;51.020;5.304;2023-09-30T02:37:36;0.57;;;0.57;;
19213;SDS011;9741;51.020;5.304;2023-09-30T02:40:03;1.43;;;1.23;;
19213;SDS011;9741;51.020;5.304;2023-09-30T02:42:34;0.70;;;0.70;;
19213;SDS011;9741;51.020;5.304;2023-09-30T02:45:03;2.00;;;1.30;;
19213;SDS011;9741;51.020;5.304;2023-09-30T02:47:30;2.27;;;1.30;;
19213;SDS011;9741;51.020;5.304;2023-09-30T02:49:59;1.50;;;0.90;;
19213;SDS011;9741;51.020;5.304;2023-09-30T02:52:27;3.37;;;1.03;;
19213;SDS011;9741;51.020;5.304;2023-09-30T02:54:55;1.77;;;1.53;;
19213;SDS011;9741;51.020;5.304;2023-09-30T02:57:23;1.83;;;1.67;;
19213;SDS011;9741;51.020;5.304;2023-09-30T02:59:50;2.27;;;1.73;;
19213;SDS011;9741;51.020;5.304;2023-09-30T03:02:18;1.60;;;1.27;;
19213;SDS011;9741;51.020;5.304;2023-09-30T03:04:46;2.00;;;1.07;;
19213;SDS011;9741;51.020;5.304;2023-09-30T03:07:17;1.27;;;1.17;;
19213;SDS011;9741;51.020;5.304;2023-09-30T03:09:45;1.80;;;1.37;;
19213;SDS011;9741;51.020;5.304;2023-09-30T03:12:13;1.80;;;1.47;;
19213;SDS011;9741;51.020;5.304;2023-09-30T03:14:40;2.20;;;1.37;;
19213;SDS011;9741;51.020;5.304;2023-09-30T03:17:10;0.63;;;0.63;;
19213;SDS011;9741;51.020;5.304;2023-09-30T03:19:37;0.80;;;0.80;;
19213;SDS011;9741;51.020;5.304;2023-09-30T03:22:05;2.83;;;1.53;;
19213;SDS011;9741;51.020;5.304;2023-09-30T03:24:38;0.60;;;0.60;;
19213;SDS011;9741;51.020;5.304;2023-09-30T03:27:06;2.03;;;1.10;;
19213;SDS011;9741;51.020;5.304;2023-09-30T03:29:35;1.03;;;0.97;;
19213;SDS011;9741;51.020;5.304;2023-09-30T03:32:03;0.77;;;0.77;;
19213;SDS011;9741;51.020;5.304;2023-09-30T03:34:30;3.87;;;2.40;;
19213;SDS011;9741;51.020;5.304;2023-09-30T03:36:57;0.97;;;0.87;;
19213;SDS011;9741;51.020;5.304;2023-09-30T03:39:25;14.07;;;1.77;;
19213;SDS011;9741;51.020;5.304;2023-09-30T03:41:54;1.03;;;0.93;;
19213;SDS011;9741;51.020;5.304;2023-09-30T03:44:23;1.63;;;1.10;;
19213;SDS011;9741;51.020;5.304;2023-09-30T03:46:50;1.50;;;1.17;;
19213;SDS011;9741;51.020;5.304;2023-09-30T03:49:17;1.13;;;1.03;;
19213;SDS011;9741;51.020;5.304;2023-09-30T03:51:46;1.83;;;1.03;;
19213;SDS011;9741;51.020;5.304;2023-09-30T03:54:15;0.57;;;0.57;;
19213;SDS011;9741;51.020;5.304;2023-09-30T03:56:44;1.63;;;1.20;;
19213;SDS011;9741;51.020;5.304;2023-09-30T03:59:13;1.50;;;0.97;;
19213;SDS011;9741;51.020;5.304;2023-09-30T04:01:41;1.43;;;1.17;;
19213;SDS011;9741;51.020;5.304;2023-09-30T04:04:09;1.80;;;0.93;;
19213;SDS011;9741;51.020;5.304;2023-09-30T04:06:36;0.87;;;0.83;;
19213;SDS011;9741;51.020;5.304;2023-09-30T04:09:04;0.80;;;0.80;;
19213;SDS011;9741;51.020;5.304;2023-09-30T04:11:35;0.30;;;0.30;;
19213;SDS011;9741;51.020;5.304;2023-09-30T04:14:03;0.90;;;0.90;;
19213;SDS011;9741;51.020;5.304;2023-09-30T04:16:32;6.97;;;1.00;;
19213;SDS011;9741;51.020;5.304;2023-09-30T04:19:00;1.07;;;0.80;;
19213;SDS011;9741;51.020;5.304;2023-09-30T04:21:28;0.70;;;0.70;;
19213;SDS011;9741;51.020;5.304;2023-09-30T04:23:59;0.50;;;0.50;;
19213;SDS011;9741;51.020;5.304;2023-09-30T04:26:27;0.43;;;0.43;;
19213;SDS011;9741;51.020;5.304;2023-09-30T04:28:55;0.70;;;0.50;;
19213;SDS011;9741;51.020;5.304;2023-09-30T04:31:22;1.20;;;1.00;;
19213;SDS011;9741;51.020;5.304;2023-09-30T04:33:51;1.47;;;0.87;;
19213;SDS011;9741;51.020;5.304;2023-09-30T04:36:19;0.70;;;0.60;;
19213;SDS011;9741;51.020;5.304;2023-09-30T04:38:46;1.30;;;1.20;;
19213;SDS011;9741;51.020;5.304;2023-09-30T04:41:13;0.80;;;0.80;;
19213;SDS011;9741;51.020;5.304;2023-09-30T04:43:41;1.70;;;1.10;;
19213;SDS011;9741;51.020;5.304;2023-09-30T04:46:09;1.20;;;0.90;;
19213;SDS011;9741;51.020;5.304;2023-09-30T04:48:37;0.93;;;0.70;;
19213;SDS011;9741;51.020;5.304;2023-09-30T04:51:07;0.43;;;0.43;;
19213;SDS011;9741;51.020;5.304;2023-09-30T04:53:36;1.40;;;1.30;;
19213;SDS011;9741;51.020;5.304;2023-09-30T04:56:03;2.37;;;0.80;;
19213;SDS011;9741;51.020;5.304;2023-09-30T04:58:31;2.00;;;1.43;;
19213;SDS011;9741;51.020;5.304;2023-09-30T05:00:58;1.37;;;0.73;;
19213;SDS011;9741;51.020;5.304;2023-09-30T05:03:25;0.70;;;0.70;;
19213;SDS011;9741;51.020;5.304;2023-09-30T05:05:52;0.80;;;0.80;;
19213;SDS011;9741;51.020;5.304;2023-09-30T05:08:22;0.57;;;0.53;;
19213;SDS011;9741;51.020;5.304;2023-09-30T05:10:49;0.77;;;0.40;;
19213;SDS011;9741;51.020;5.304;2023-09-30T05:13:20;1.20;;;1.10;;
19213;SDS011;9741;51.020;5.304;2023-09-30T05:15:48;2.10;;;1.10;;
19213;SDS011;9741;51.020;5.304;2023-09-30T05:18:16;1.50;;;0.73;;
19213;SDS011;9741;51.020;5.304;2023-09-30T05:20:43;1.60;;;1.10;;
19213;SDS011;9741;51.020;5.304;2023-09-30T05:23:11;0.67;;;0.67;;
19213;SDS011;9741;51.020;5.304;2023-09-30T05:25:41;0.40;;;0.40;;
19213;SDS011;9741;51.020;5.304;2023-09-30T05:28:08;0.40;;;0.40;;
19213;SDS011;9741;51.020;5.304;2023-09-30T05:30:36;1.20;;;0.93;;
19213;SDS011;9741;51.020;5.304;2023-09-30T05:33:04;0.40;;;0.40;;
19213;SDS011;9741;51.020;5.304;2023-09-30T05:35:31;1.33;;;1.10;;
19213;SDS011;9741;51.020;5.304;2023-09-30T05:37:58;0.93;;;0.87;;
19213;SDS011;9741;51.020;5.304;2023-09-30T05:40:26;0.63;;;0.63;;
19213;SDS011;9741;51.020;5.304;2023-09-30T05:42:57;0.90;;;0.90;;
19213;SDS011;9741;51.020;5.304;2023-09-30T05:45:24;1.10;;;0.97;;
19213;SDS011;9741;51.020;5.304;2023-09-30T05:47:52;0.93;;;0.87;;
19213;SDS011;9741;51.020;5.304;2023-09-30T05:50:20;1.23;;;0.90;;
19213;SDS011;9741;51.020;5.304;2023-09-30T05:52:51;0.50;;;0.50;;
19213;SDS011;9741;51.020;5.304;2023-09-30T05:55:18;1.27;;;1.10;;
19213;SDS011;9741;51.020;5.304;2023-09-30T05:57:46;0.47;;;0.47;;
19213;SDS011;9741;51.020;5.304;2023-09-30T06:00:16;0.50;;;0.50;;
19213;SDS011;9741;51.020;5.304;2023-09-30T06:02:47;0.83;;;0.63;;
19213;SDS011;9741;51.020;5.304;2023-09-30T06:05:16;0.60;;;0.60;;
19213;SDS011;9741;51.020;5.304;2023-09-30T06:07:45;0.83;;;0.83;;
19213;SDS011;9741;51.020;5.304;2023-09-30T06:10:12;0.70;;;0.70;;
19213;SDS011;9741;51.020;5.304;2023-09-30T06:12:41;2.27;;;1.13;;
19213;SDS011;9741;51.020;5.304;2023-09-30T06:15:10;21.33;;;1.43;;
19213;SDS011;9741;51.020;5.304;2023-09-30T06:17:39;0.67;;;0.67;;
19213;SDS011;9741;51.020;5.304;2023-09-30T06:20:07;3.03;;;1.30;;
19213;SDS011;9741;51.020;5.304;2023-09-30T06:22:41;1.00;;;0.87;;
19213;SDS011;9741;51.020;5.304;2023-09-30T06:25:10;1.37;;;1.27;;
19213;SDS011;9741;51.020;5.304;2023-09-30T06:27:38;1.13;;;1.03;;
19213;SDS011;9741;51.020;5.304;2023-09-30T06:30:06;3.23;;;1.53;;
19213;SDS011;9741;51.020;5.304;2023-09-30T06:32:34;2.57;;;1.40;;
19213;SDS011;9741;51.020;5.304;2023-09-30T06:35:03;1.10;;;1.03;;
19213;SDS011;9741;51.020;5.304;2023-09-30T06:37:35;1.93;;;1.00;;
19213;SDS011;9741;51.020;5.304;2023-09-30T06:40:03;3.00;;;2.00;;
19213;SDS011;9741;51.020;5.304;2023-09-30T06:42:33;2.23;;;1.10;;
19213;SDS011;9741;51.020;5.304;2023-09-30T06:45:00;1.37;;;1.13;;
19213;SDS011;9741;51.020;5.304;2023-09-30T06:47:30;1.97;;;1.03;;
19213;SDS011;9741;51.020;5.304;2023-09-30T06:49:59;2.47;;;1.30;;
19213;SDS011;9741;51.020;5.304;2023-09-30T06:52:34;2.50;;;1.87;;
19213;SDS011;9741;51.020;5.304;2023-09-30T06:55:05;1.63;;;1.37;;
19213;SDS011;9741;51.020;5.304;2023-09-30T06:57:33;4.33;;;1.93;;
19213;SDS011;9741;51.020;5.304;2023-09-30T07:00:01;2.17;;;1.60;;
19213;SDS011;9741;51.020;5.304;2023-09-30T07:02:34;2.10;;;1.50;;
19213;SDS011;9741;51.020;5.304;2023-09-30T07:05:05;1.80;;;1.70;;
19213;SDS011;9741;51.020;5.304;2023-09-30T07:07:35;2.10;;;1.67;;
19213;SDS011;9741;51.020;5.304;2023-09-30T07:10:02;1.90;;;1.30;;
19213;SDS011;9741;51.020;5.304;2023-09-30T07:12:30;4.47;;;2.57;;
19213;SDS011;9741;51.020;5.304;2023-09-30T07:15:00;2.50;;;1.90;;
19213;SDS011;9741;51.020;5.304;2023-09-30T07:17:27;6.80;;;2.07;;
19213;SDS011;9741;51.020;5.304;2023-09-30T07:19:55;2.50;;;2.07;;
19213;SDS011;9741;51.020;5.304;2023-09-30T07:22:23;5.47;;;2.50;;
19213;SDS011;9741;51.020;5.304;2023-09-30T07:24:51;2.50;;;1.53;;
19213;SDS011;9741;51.020;5.304;2023-09-30T07:27:19;3.37;;;2.60;;
19213;SDS011;9741;51.020;5.304;2023-09-30T07:29:46;2.27;;;1.87;;
19213;SDS011;9741;51.020;5.304;2023-09-30T07:32:14;3.47;;;2.73;;
19213;SDS011;9741;51.020;5.304;2023-09-30T07:34:41;3.90;;;2.47;;
19213;SDS011;9741;51.020;5.304;2023-09-30T07:37:09;4.60;;;2.30;;
19213;SDS011;9741;51.020;5.304;2023-09-30T07:39:36;10.70;;;2.87;;
19213;SDS011;9741;51.020;5.304;2023-09-30T07:42:05;6.03;;;2.27;;
19213;SDS011;9741;51.020;5.304;2023-09-30T07:44:35;3.33;;;1.60;;
19213;SDS011;9741;51.020;5.304;2023-09-30T07:47:02;6.97;;;3.07;;
19213;SDS011;9741;51.020;5.304;2023-09-30T07:49:31;6.53;;;2.63;;
19213;SDS011;9741;51.020;5.304;2023-09-30T07:51:58;4.23;;;2.93;;
19213;SDS011;9741;51.020;5.304;2023-09-30T07:54:25;8.47;;;3.87;;
19213;SDS011;9741;51.020;5.304;2023-09-30T07:56:53;2.87;;;2.20;;
19213;SDS011;9741;51.020;5.304;2023-09-30T07:59:22;10.07;;;2.67;;
19213;SDS011;9741;51.020;5.304;2023-09-30T08:01:49;4.80;;;2.77;;
19213;SDS011;9741;51.020;5.304;2023-09-30T08:04:17;8.75;;;2.45;;
19213;SDS011;9741;51.020;5.304;2023-09-30T08:06:44;6.65;;;3.03;;
19213;SDS011;9741;51.020;5.304;2023-09-30T08:09:12;2.45;;;2.03;;
19213;SDS011;9741;51.020;5.304;2023-09-30T08:11:39;4.35;;;2.33;;
19213;SDS011;9741;51.020;5.304;2023-09-30T08:14:07;7.20;;;2.50;;
19213;SDS011;9741;51.020;5.304;2023-09-30T08:16:36;3.20;;;2.25;;
19213;SDS011;9741;51.020;5.304;2023-09-30T08:19:06;3.92;;;2.65;;
19213;SDS011;9741;51.020;5.304;2023-09-30T08:21:34;9.45;;;3.05;;
19213;SDS011;9741;51.020;5.304;2023-09-30T08:24:01;4.78;;;2.08;;
19213;SDS011;9741;51.020;5.304;2023-09-30T08:26:29;5.65;;;2.85;;
19213;SDS011;9741;51.020;5.304;2023-09-30T08:28:56;4.20;;;2.88;;
19213;SDS011;9741;51.020;5.304;2023-09-30T08:31:23;4.47;;;2.65;;
19213;SDS011;9741;51.020;5.304;2023-09-30T08:33:52;6.57;;;2.42;;
19213;SDS011;9741;51.020;5.304;2023-09-30T08:36:19;8.65;;;3.22;;
19213;SDS011;9741;51.020;5.304;2023-09-30T08:38:46;2.55;;;2.30;;
19213;SDS011;9741;51.020;5.304;2023-09-30T08:41:15;7.50;;;3.42;;
19213;SDS011;9741;51.020;5.304;2023-09-30T08:43:55;7.43;;;4.20;;
19213;SDS011;9741;51.020;5.304;2023-09-30T08:46:30;9.38;;;4.40;;
19213;SDS011;9741;51.020;5.304;2023-09-30T08:49:02;9.75;;;4.20;;
19213;SDS011;9741;51.020;5.304;2023-09-30T08:51:31;9.27;;;5.53;;
19213;SDS011;9741;51.020;5.304;2023-09-30T08:53:59;12.23;;;4.18;;
19213;SDS011;9741;51.020;5.304;2023-09-30T08:56:29;10.55;;;4.78;;
19213;SDS011;9741;51.020;5.304;2023-09-30T08:58:59;8.98;;;5.18;;
19213;SDS011;9741;51.020;5.304;2023-09-30T09:01:28;6.40;;;4.47;;
19213;SDS011;9741;51.020;5.304;2023-09-30T09:03:57;12.75;;;5.90;;
19213;SDS011;9741;51.020;5.304;2023-09-30T09:06:26;8.73;;;4.72;;
19213;SDS011;9741;51.020;5.304;2023-09-30T09:08:54;15.13;;;7.70;;
19213;SDS011;9741;51.020;5.304;2023-09-30T09:11:40;18.35;;;5.63;;
19213;SDS011;9741;51.020;5.304;2023-09-30T09:14:07;11.60;;;6.18;;
19213;SDS011;9741;51.020;5.304;2023-09-30T09:16:34;13.95;;;5.15;;
19213;SDS011;9741;51.020;5.304;2023-09-30T09:19:12;12.27;;;5.63;;
19213;SDS011;9741;51.020;5.304;2023-09-30T09:21:54;10.52;;;5.40;;
19213;SDS011;9741;51.020;5.304;2023-09-30T09:24:31;8.23;;;5.25;;
19213;SDS011;9741;51.020;5.304;2023-09-30T09:27:04;8.48;;;5.78;;
19213;SDS011;9741;51.020;5.304;2023-09-30T09:29:35;6.57;;;4.75;;
19213;SDS011;9741;51.020;5.304;2023-09-30T09:32:06;8.50;;;5.65;;
19213;SDS011;9741;51.020;5.304;2023-09-30T09:34:35;15.82;;;5.25;;
19213;SDS011;9741;51.020;5.304;2023-09-30T09:37:16;9.23;;;4.82;;
19213;SDS011;9741;51.020;5.304;2023-09-30T09:39:52;9.75;;;5.30;;
19213;SDS011;9741;51.020;5.304;2023-09-30T09:42:27;9.55;;;3.92;;
19213;SDS011;9741;51.020;5.304;2023-09-30T09:44:57;8.05;;;4.05;;
19213;SDS011;9741;51.020;5.304;2023-09-30T09:47:28;5.18;;;3.47;;
19213;SDS011;9741;51.020;5.304;2023-09-30T09:49:58;7.35;;;4.18;;
19213;SDS011;9741;51.020;5.304;2023-09-30T09:52:28;7.47;;;3.55;;
19213;SDS011;9741;51.020;5.304;2023-09-30T09:55:00;6.75;;;4.13;;
19213;SDS011;9741;51.020;5.304;2023-09-30T09:57:29;5.75;;;3.83;;
19213;SDS011;9741;51.020;5.304;2023-09-30T09:59:58;5.88;;;4.20;;
19213;SDS011;9741;51.020;5.304;2023-09-30T10:02:26;7.82;;;4.32;;
19213;SDS011;9741;51.020;5.304;2023-09-30T10:04:54;5.75;;;3.50;;
19213;SDS011;9741;51.020;5.304;2023-09-30T10:07:22;6.53;;;3.55;;
19213;SDS011;9741;51.020;5.304;2023-09-30T10:09:55;5.47;;;3.65;;
19213;SDS011;9741;51.020;5.304;2023-09-30T10:12:26;6.50;;;2.95;;
19213;SDS011;9741;51.020;5.304;2023-09-30T10:14:54;7.82;;;3.58;;
19213;SDS011;9741;51.020;5.304;2023-09-30T10:17:26;7.15;;;3.65;;
19213;SDS011;9741;51.020;5.304;2023-09-30T10:20:26;6.38;;;4.35;;
19213;SDS011;9741;51.020;5.304;2023-09-30T10:25:53;5.53;;;3.92;;
19213;SDS011;9741;51.020;5.304;2023-09-30T10:28:44;5.95;;;2.88;;
19213;SDS011;9741;51.020;5.304;2023-09-30T10:31:15;4.70;;;2.00;;
19213;SDS011;9741;51.020;5.304;2023-09-30T10:36:48;5.10;;;3.47;;
19213;SDS011;9741;51.020;5.304;2023-09-30T10:51:09;3.35;;;2.20;;
19213;SDS011;9741;51.020;5.304;2023-09-30T10:53:41;3.45;;;2.45;;
19213;SDS011;9741;51.020;5.304;2023-09-30T10:56:11;2.90;;;2.47;;
19213;SDS011;9741;51.020;5.304;2023-09-30T10:58:39;4.18;;;3.10;;
19213;SDS011;9741;51.020;5.304;2023-09-30T11:01:09;4.22;;;2.40;;
19213;SDS011;9741;51.020;5.304;2023-09-30T11:03:36;2.97;;;2.28;;
19213;SDS011;9741;51.020;5.304;2023-09-30T11:06:04;4.05;;;2.45;;
19213;SDS011;9741;51.020;5.304;2023-09-30T11:08:32;3.30;;;2.00;;
19213;SDS011;9741;51.020;5.304;2023-09-30T11:11:01;2.03;;;1.80;;
19213;SDS011;9741;51.020;5.304;2023-09-30T11:13:32;5.65;;;2.38;;
19213;SDS011;9741;51.020;5.304;2023-09-30T11:16:01;4.25;;;2.95;;
19213;SDS011;9741;51.020;5.304;2023-09-30T11:18:32;4.22;;;2.83;;
19213;SDS011;9741;51.020;5.304;2023-09-30T11:21:07;2.30;;;2.05;;
19213;SDS011;9741;51.020;5.304;2023-09-30T11:23:37;2.30;;;1.45;;
19213;SDS011;9741;51.020;5.304;2023-09-30T11:26:05;6.60;;;2.25;;
19213;SDS011;9741;51.020;5.304;2023-09-30T11:28:38;9.18;;;2.17;;
19213;SDS011;9741;51.020;5.304;2023-09-30T11:31:07;1.67;;;1.58;;
19213;SDS011;9741;51.020;5.304;2023-09-30T11:33:51;3.25;;;2.08;;
19213;SDS011;9741;51.020;5.304;2023-09-30T11:36:23;2.83;;;2.13;;
19213;SDS011;9741;51.020;5.304;2023-09-30T11:38:51;4.32;;;2.58;;
19213;SDS011;9741;51.020;5.304;2023-09-30T11:41:19;3.42;;;2.47;;
19213;SDS011;9741;51.020;5.304;2023-09-30T11:44:00;5.32;;;2.13;;
19213;SDS011;9741;51.020;5.304;2023-09-30T11:46:33;2.60;;;1.45;;
19213;SDS011;9741;51.020;5.304;2023-09-30T11:49:28;2.67;;;1.75;;
19213;SDS011;9741;51.020;5.304;2023-09-30T11:51:59;4.97;;;2.03;;
19213;SDS011;9741;51.020;5.304;2023-09-30T11:54:29;1.00;;;1.00;;
19213;SDS011;9741;51.020;5.304;2023-09-30T11:56:58;1.02;;;0.93;;
19213;SDS011;9741;51.020;5.304;2023-09-30T11:59:26;5.45;;;2.38;;
19213;SDS011;9741;51.020;5.304;2023-09-30T12:01:54;1.98;;;1.73;;
19213;SDS011;9741;51.020;5.304;2023-09-30T12:04:21;4.53;;;1.83;;
19213;SDS011;9741;51.020;5.304;2023-09-30T12:06:51;2.15;;;1.65;;
19213;SDS011;9741;51.020;5.304;2023-09-30T12:09:18;2.38;;;1.83;;
19213;SDS011;9741;51.020;5.304;2023-09-30T12:11:50;3.78;;;2.15;;
19213;SDS011;9741;51.020;5.304;2023-09-30T12:14:18;5.63;;;1.98;;
19213;SDS011;9741;51.020;5.304;2023-09-30T12:16:51;5.55;;;2.42;;
19213;SDS011;9741;51.020;5.304;2023-09-30T12:19:19;2.67;;;1.80;;
19213;SDS011;9741;51.020;5.304;2023-09-30T12:21:48;4.13;;;1.80;;
19213;SDS011;9741;51.020;5.304;2023-09-30T12:24:17;2.67;;;1.63;;
19213;SDS011;9741;51.020;5.304;2023-09-30T12:26:48;3.95;;;2.17;;
19213;SDS011;9741;51.020;5.304;2023-09-30T12:29:17;3.67;;;2.20;;
19213;SDS011;9741;51.020;5.304;2023-09-30T12:31:49;1.67;;;1.27;;
19213;SDS011;9741;51.020;5.304;2023-09-30T12:34:17;1.20;;;1.10;;
19213;SDS011;9741;51.020;5.304;2023-09-30T12:36:45;3.28;;;1.58;;
19213;SDS011;9741;51.020;5.304;2023-09-30T12:39:17;1.10;;;1.00;;
19213;SDS011;9741;51.020;5.304;2023-09-30T12:41:50;4.35;;;1.45;;
19213;SDS011;9741;51.020;5.304;2023-09-30T12:44:18;3.45;;;1.58;;
19213;SDS011;9741;51.020;5.304;2023-09-30T12:46:48;2.78;;;1.42;;
19213;SDS011;9741;51.020;5.304;2023-09-30T12:49:16;1.20;;;1.10;;
19213;SDS011;9741;51.020;5.304;2023-09-30T12:51:47;2.30;;;1.85;;
19213;SDS011;9741;51.020;5.304;2023-09-30T12:54:19;2.75;;;1.45;;
19213;SDS011;9741;51.020;5.304;2023-09-30T12:56:46;2.35;;;1.52;;
19213;SDS011;9741;51.020;5.304;2023-09-30T12:59:15;2.75;;;1.77;;
19213;SDS011;9741;51.020;5.304;2023-09-30T13:01:44;2.72;;;1.48;;
19213;SDS011;9741;51.020;5.304;2023-09-30T13:04:13;1.70;;;1.25;;
19213;SDS011;9741;51.020;5.304;2023-09-30T13:06:42;3.33;;;1.13;;
19213;SDS011;9741;51.020;5.304;2023-09-30T13:09:10;2.90;;;1.60;;
19213;SDS011;9741;51.020;5.304;2023-09-30T13:11:40;2.53;;;1.63;;
19213;SDS011;9741;51.020;5.304;2023-09-30T13:14:07;3.38;;;2.22;;
19213;SDS011;9741;51.020;5.304;2023-09-30T13:16:36;2.70;;;1.83;;
19213;SDS011;9741;51.020;5.304;2023-09-30T13:19:04;2.38;;;1.58;;
19213;SDS011;9741;51.020;5.304;2023-09-30T13:21:35;2.40;;;1.27;;
19213;SDS011;9741;51.020;5.304;2023-09-30T13:24:02;3.05;;;1.35;;
19213;SDS011;9741;51.020;5.304;2023-09-30T13:26:32;3.78;;;1.75;;
19213;SDS011;9741;51.020;5.304;2023-09-30T13:29:02;1.63;;;0.93;;
19213;SDS011;9741;51.020;5.304;2023-09-30T13:31:30;3.83;;;2.08;;
19213;SDS011;9741;51.020;5.304;2023-09-30T13:33:58;1.23;;;0.85;;
19213;SDS011;9741;51.020;5.304;2023-09-30T13:36:26;1.75;;;1.10;;
19213;SDS011;9741;51.020;5.304;2023-09-30T13:38:55;0.60;;;0.60;;
19213;SDS011;9741;51.020;5.304;2023-09-30T13:41:26;1.55;;;1.10;;
19213;SDS011;9741;51.020;5.304;2023-09-30T13:43:54;1.58;;;1.38;;
19213;SDS011;9741;51.020;5.304;2023-09-30T13:46:24;1.02;;;1.00;;
19213;SDS011;9741;51.020;5.304;2023-09-30T13:48:54;1.10;;;0.90;;
19213;SDS011;9741;51.020;5.304;2023-09-30T13:51:21;1.83;;;1.35;;
19213;SDS011;9741;51.020;5.304;2023-09-30T13:53:49;4.15;;;1.52;;
19213;SDS011;9741;51.020;5.304;2023-09-30T13:56:18;3.75;;;1.25;;
19213;SDS011;9741;51.020;5.304;2023-09-30T13:58:46;2.90;;;1.52;;
19213;SDS011;9741;51.020;5.304;2023-09-30T14:01:15;2.40;;;1.45;;
19213;SDS011;9741;51.020;5.304;2023-09-30T14:03:47;2.25;;;1.23;;
19213;SDS011;9741;51.020;5.304;2023-09-30T14:06:14;3.40;;;1.10;;
19213;SDS011;9741;51.020;5.304;2023-09-30T14:08:45;2.10;;;1.73;;
19213;SDS011;9741;51.020;5.304;2023-09-30T14:11:13;1.02;;;0.93;;
19213;SDS011;9741;51.020;5.304;2023-09-30T14:13:43;0.73;;;0.73;;
19213;SDS011;9741;51.020;5.304;2023-09-30T14:16:11;3.53;;;1.55;;
19213;SDS011;9741;51.020;5.304;2023-09-30T14:18:39;2.50;;;1.70;;
19213;SDS011;9741;51.020;5.304;2023-09-30T14:21:10;4.82;;;1.55;;
19213;SDS011;9741;51.020;5.304;2023-09-30T14:23:37;1.42;;;1.15;;
19213;SDS011;9741;51.020;5.304;2023-09-30T14:26:05;2.58;;;1.63;;
19213;SDS011;9741;51.020;5.304;2023-09-30T14:28:36;1.10;;;0.98;;
19213;SDS011;9741;51.020;5.304;2023-09-30T14:31:03;1.50;;;1.25;;
19213;SDS011;9741;51.020;5.304;2023-09-30T14:33:33;5.40;;;1.30;;
19213;SDS011;9741;51.020;5.304;2023-09-30T14:36:01;2.05;;;1.42;;
19213;SDS011;9741;51.020;5.304;2023-09-30T14:38:35;0.82;;;0.82;;
19213;SDS011;9741;51.020;5.304;2023-09-30T14:41:06;1.77;;;1.25;;
19213;SDS011;9741;51.020;5.304;2023-09-30T14:43:35;2.58;;;1.17;;
19213;SDS011;9741;51.020;5.304;2023-09-30T14:46:05;1.50;;;1.40;;
19213;SDS011;9741;51.020;5.304;2023-09-30T14:48:33;2.67;;;1.10;;
19213;SDS011;9741;51.020;5.304;2023-09-30T14:51:03;2.25;;;1.20;;
19213;SDS011;9741;51.020;5.304;2023-09-30T14:53:33;2.80;;;1.08;;
19213;SDS011;9741;51.020;5.304;2023-09-30T14:56:00;2.00;;;1.60;;
19213;SDS011;9741;51.020;5.304;2023-09-30T14:58:28;1.15;;;1.05;;
19213;SDS011;9741;51.020;5.304;2023-09-30T15:00:56;1.60;;;1.40;;
19213;SDS011;9741;51.020;5.304;2023-09-30T15:03:24;7.90;;;2.20;;
19213;SDS011;9741;51.020;5.304;2023-09-30T15:05:57;1.55;;;1.02;;
19213;SDS011;9741;51.020;5.304;2023-09-30T15:08:28;1.75;;;1.13;;
19213;SDS011;9741;51.020;5.304;2023-09-30T15:11:00;2.42;;;2.05;;
19213;SDS011;9741;51.020;5.304;2023-09-30T15:13:30;7.80;;;2.58;;
19213;SDS011;9741;51.020;5.304;2023-09-30T15:16:00;10.32;;;3.45;;
19213;SDS011;9741;51.020;5.304;2023-09-30T15:18:29;3.65;;;1.85;;
19213;SDS011;9741;51.020;5.304;2023-09-30T15:20:59;8.10;;;2.00;;
19213;SDS011;9741;51.020;5.304;2023-09-30T15:23:29;14.73;;;3.13;;
19213;SDS011;9741;51.020;5.304;2023-09-30T15:26:01;20.83;;;2.70;;
19213;SDS011;9741;51.020;5.304;2023-09-30T15:28:31;8.07;;;2.53;;
19213;SDS011;9741;51.020;5.304;2023-09-30T15:30:59;5.53;;;2.85;;